createdAt,value
2023-01-06T00:01:19.886Z,101603.16
2023-01-06T00:03:51.613Z,101577.50
2023-01-06T00:06:22.999Z,101590.81
2023-01-06T00:08:51.362Z,101469.72
2023-01-06T00:11:21.016Z,101589.91
2023-01-06T00:13:49.640Z,101593.41
2023-01-06T00:16:20.104Z,101582.78
2023-01-06T00:18:48.859Z,101596.06
2023-01-06T00:21:17.694Z,101576.63
2023-01-06T00:23:46.044Z,101555.41
2023-01-06T00:26:14.320Z,101584.59
2023-01-06T00:28:44.727Z,101581.94
2023-01-06T00:31:15.697Z,101582.81
2023-01-06T00:33:44.883Z,101538.63
2023-01-06T00:36:14.871Z,101531.59
2023-01-06T00:38:44.160Z,101573.06
2023-01-06T00:41:32.821Z,101577.50
2023-01-06T00:44:03.347Z,101565.13
2023-01-06T00:46:34.211Z,101566.03
2023-01-06T00:49:05.513Z,101550.97
2023-01-06T00:51:36.437Z,101565.13
2023-01-06T00:54:05.059Z,101549.19
2023-01-06T00:56:33.714Z,101388.44
2023-01-06T00:59:04.182Z,101528.00
2023-01-06T01:01:32.786Z,101554.53
2023-01-06T01:04:01.599Z,101542.13
2023-01-06T01:06:30.085Z,101546.56
2023-01-06T01:09:00.726Z,101540.38
2023-01-06T01:11:47.609Z,101525.31
2023-01-06T01:14:19.886Z,101541.22
2023-01-06T01:16:48.635Z,101511.22
2023-01-06T01:19:18.310Z,101535.03
2023-01-06T01:21:47.092Z,101542.13
2023-01-06T01:24:16.281Z,101518.25
2023-01-06T01:26:44.630Z,101531.50
2023-01-06T01:29:14.860Z,101517.38
2023-01-06T01:31:45.102Z,101518.25
2023-01-06T01:34:16.588Z,101507.66
2023-01-06T01:36:46.128Z,101517.38
2023-01-06T01:39:16.925Z,101523.59
2023-01-06T01:41:45.570Z,101497.06
2023-01-06T01:44:55.979Z,101491.72
2023-01-06T01:47:39.649Z,101466.97
2023-01-06T01:50:20.500Z,101466.09
2023-01-06T01:52:54.419Z,101479.34
2023-01-06T01:55:23.763Z,101476.69
2023-01-06T01:57:57.812Z,101474.94
2023-01-06T02:00:26.156Z,101459.03
2023-01-06T02:02:57.311Z,101403.41
2023-01-06T02:05:28.507Z,101457.25
2023-01-06T02:07:58.449Z,101471.41
2023-01-06T02:10:26.931Z,101464.34
2023-01-06T02:13:01.066Z,101459.06
2023-01-06T02:15:33.363Z,101465.22
2023-01-06T02:18:39.275Z,101451.09
2023-01-06T02:21:41.117Z,101457.28
2023-01-06T02:24:57.835Z,101459.03
2023-01-06T02:28:17.030Z,101457.25
2023-01-06T02:31:54.727Z,101454.63
2023-01-06T02:34:39.808Z,101388.38
2023-01-06T02:37:20.556Z,101421.91
2023-01-06T02:40:07.344Z,101431.63
2023-01-06T02:42:46.063Z,101413.94
2023-01-06T02:45:22.923Z,101397.16
2023-01-06T02:48:02.694Z,101399.81
2023-01-06T02:50:41.608Z,101400.63
2023-01-06T02:53:19.506Z,101400.66
2023-01-06T02:55:52.227Z,101405.06
2023-01-06T02:58:31.437Z,101394.47
2023-01-06T03:01:05.776Z,101390.06
2023-01-06T03:03:39.518Z,101405.06
2023-01-06T03:06:13.217Z,101393.59
2023-01-06T03:08:42.530Z,101375.00
2023-01-06T03:11:11.140Z,101377.66
2023-01-06T03:13:45.864Z,101386.53
2023-01-06T03:16:15.360Z,101393.59
2023-01-06T03:18:46.758Z,101368.03
2023-01-06T03:21:22.321Z,101386.56
2023-01-06T03:23:50.987Z,101360.06
2023-01-06T03:26:19.597Z,101341.47
2023-01-06T03:28:48.375Z,101348.56
2023-01-06T03:31:28.404Z,101352.06
2023-01-06T03:34:08.578Z,101368.88
2023-01-06T03:36:50.647Z,101338.88
2023-01-06T03:39:25.029Z,101357.38
2023-01-06T03:42:35.166Z,101369.75
2023-01-06T03:45:16.221Z,101376.81
2023-01-06T03:47:53.700Z,101368.84
2023-01-06T03:50:31.373Z,101368.84
2023-01-06T03:53:15.285Z,101348.50
2023-01-06T03:55:48.471Z,101367.09
2023-01-06T03:58:19.081Z,101344.09
2023-01-06T04:00:48.375Z,101271.75
2023-01-06T04:03:18.136Z,101352.91
2023-01-06T04:05:48.464Z,101362.69
2023-01-06T04:08:16.873Z,101352.06
2023-01-06T04:10:45.193Z,101352.06
2023-01-06T04:13:12.525Z,101345.91
2023-01-06T04:15:40.911Z,101312.25
2023-01-06T04:18:10.230Z,101324.63
2023-01-06T04:20:41.164Z,101326.41
2023-01-06T04:23:26.236Z,101329.03
2023-01-06T04:25:54.722Z,101319.31
2023-01-06T04:28:35.613Z,101336.13
2023-01-06T04:31:04.367Z,101311.41
2023-01-06T04:33:35.721Z,101312.25
2023-01-06T04:36:08.104Z,101332.56
2023-01-06T04:38:38.649Z,101323.75
2023-01-06T04:41:07.023Z,101317.53
2023-01-06T04:43:35.346Z,101314.03
2023-01-06T04:46:03.915Z,101299.00
2023-01-06T04:48:32.308Z,101315.81
2023-01-06T04:51:04.718Z,101282.22
2023-01-06T04:53:35.679Z,101279.59
2023-01-06T04:56:07.028Z,101287.56
2023-01-06T04:58:35.811Z,101272.50
2023-01-06T05:01:05.721Z,101294.69
2023-01-06T05:03:35.079Z,101288.47
2023-01-06T05:06:04.464Z,101276.97
2023-01-06T05:08:33.454Z,101269.00
2023-01-06T05:11:02.886Z,101135.97
2023-01-06T05:13:33.928Z,101271.75
2023-01-06T05:16:02.632Z,101270.88
2023-01-06T05:18:30.961Z,101262.88
2023-01-06T05:20:59.432Z,101269.06
2023-01-06T05:23:27.779Z,101258.47
2023-01-06T05:25:56.239Z,101216.16
2023-01-06T05:28:24.756Z,101247.91
2023-01-06T05:30:54.634Z,101254.06
2023-01-06T05:33:23.013Z,101283.22
2023-01-06T05:35:51.290Z,101270.84
2023-01-06T05:38:19.637Z,101250.59
2023-01-06T05:40:52.649Z,101274.41
2023-01-06T05:43:21.148Z,101262.91
2023-01-06T05:45:49.476Z,101257.59
2023-01-06T05:48:19.522Z,101260.25
2023-01-06T05:50:47.874Z,101273.53
2023-01-06T05:53:16.450Z,101281.50
2023-01-06T05:55:44.854Z,101268.22
2023-01-06T05:58:13.123Z,101275.31
2023-01-06T06:00:41.455Z,101285.00
2023-01-06T06:03:09.901Z,101298.25
2023-01-06T06:05:39.666Z,101152.72
2023-01-06T06:08:09.339Z,101276.19
2023-01-06T06:10:37.787Z,101284.13
2023-01-06T06:13:06.103Z,101291.22
2023-01-06T06:15:34.501Z,101307.09
2023-01-06T06:18:03.335Z,101311.50
2023-01-06T06:20:32.342Z,101332.72
2023-01-06T06:23:02.086Z,101255.03
2023-01-06T06:25:30.939Z,101335.38
2023-01-06T06:27:59.779Z,101353.88
2023-01-06T06:30:28.163Z,101358.31
2023-01-06T06:32:56.422Z,101320.34
2023-01-06T06:35:24.712Z,101352.19
2023-01-06T06:37:55.327Z,101357.47
2023-01-06T06:40:25.013Z,101341.59
2023-01-06T06:42:53.723Z,101361.88
2023-01-06T06:45:22.015Z,101362.78
2023-01-06T06:47:50.380Z,101362.78
2023-01-06T06:50:18.756Z,101367.19
2023-01-06T06:52:47.154Z,101331.03
2023-01-06T06:55:15.633Z,101363.69
2023-01-06T06:57:45.268Z,101363.69
2023-01-06T07:00:15.144Z,101356.59
2023-01-06T07:02:44.515Z,101374.25
2023-01-06T07:05:12.805Z,101391.03
2023-01-06T07:07:41.177Z,101381.31
2023-01-06T07:10:12.465Z,101383.09
2023-01-06T07:12:40.832Z,101401.63
2023-01-06T07:15:12.212Z,101403.38
2023-01-06T07:17:41.743Z,101391.00
2023-01-06T07:20:11.664Z,101418.38
2023-01-06T07:22:40.659Z,101428.94
2023-01-06T07:25:11.071Z,101437.78
2023-01-06T07:27:39.497Z,101428.94
2023-01-06T07:30:11.043Z,101416.56
2023-01-06T07:32:39.525Z,101435.13
2023-01-06T07:35:08.937Z,101342.47
2023-01-06T07:37:37.272Z,101457.22
2023-01-06T07:40:07.100Z,101446.59
2023-01-06T07:42:37.310Z,101421.00
2023-01-06T07:45:07.365Z,101457.22
2023-01-06T07:47:37.415Z,101457.19
2023-01-06T07:50:07.646Z,101465.97
2023-01-06T07:52:36.047Z,101458.97
2023-01-06T07:55:05.066Z,101467.84
2023-01-06T07:57:33.483Z,101456.38
2023-01-06T08:00:01.810Z,101466.97
2023-01-06T08:02:41.731Z,101462.56
2023-01-06T08:05:10.556Z,101471.41
2023-01-06T08:07:38.871Z,101478.50
2023-01-06T08:10:09.561Z,101467.03
2023-01-06T08:12:38.128Z,101478.50
2023-01-06T08:15:08.036Z,101482.03
2023-01-06T08:17:36.674Z,101484.69
2023-01-06T08:20:07.819Z,101380.47
2023-01-06T08:22:36.159Z,101487.31
2023-01-06T08:25:04.543Z,101505.84
2023-01-06T08:27:32.925Z,101516.38
2023-01-06T08:30:01.503Z,101473.88
2023-01-06T08:32:29.874Z,101420.78
2023-01-06T08:34:58.228Z,101538.94
2023-01-06T08:37:29.175Z,101551.03
2023-01-06T08:39:58.197Z,101556.06
2023-01-06T08:42:26.539Z,101557.63
2023-01-06T08:44:55.183Z,101565.22
2023-01-06T08:47:23.584Z,101578.16
2023-01-06T08:49:52.041Z,101580.31
2023-01-06T08:52:20.660Z,101499.03
2023-01-06T08:54:50.450Z,101583.66
2023-01-06T08:57:18.840Z,101565.97
2023-01-06T08:59:47.767Z,101580.13
2023-01-06T09:02:16.136Z,101588.91
2023-01-06T09:04:44.794Z,101576.63
2023-01-06T09:07:13.251Z,101584.72
2023-01-06T09:09:41.593Z,101591.03
2023-01-06T09:12:11.459Z,101591.97
2023-01-06T09:14:39.908Z,101582.72
2023-01-06T09:17:08.164Z,101588.56
2023-01-06T09:19:36.527Z,101587.25
2023-01-06T09:22:05.107Z,101591.44
2023-01-06T09:24:33.465Z,101588.09
2023-01-06T09:27:01.852Z,101591.06
2023-01-06T09:29:31.918Z,101605.75
2023-01-06T09:32:00.293Z,101606.75
2023-01-06T09:34:28.647Z,101599.66
2023-01-06T09:36:57.463Z,101610.22
2023-01-06T09:39:25.807Z,101618.50
2023-01-06T09:42:21.059Z,101631.13
2023-01-06T09:44:56.321Z,101638.31
2023-01-06T09:47:30.537Z,101610.81
2023-01-06T09:50:05.592Z,101553.25
2023-01-06T09:52:39.056Z,101634.22
2023-01-06T09:55:13.154Z,101642.94
2023-01-06T09:57:46.955Z,101642.03
2023-01-06T10:00:30.129Z,101635.78
2023-01-06T10:02:58.563Z,101630.84
2023-01-06T10:05:39.795Z,101630.38
2023-01-06T10:08:19.100Z,101632.09
2023-01-06T10:10:59.413Z,101636.13
2023-01-06T10:13:43.026Z,101641.94
2023-01-06T10:16:23.265Z,101645.47
2023-01-06T10:19:00.266Z,101647.53
2023-01-06T10:21:35.089Z,101643.59
2023-01-06T10:24:33.157Z,101655.72
2023-01-06T10:27:19.535Z,101661.94
2023-01-06T10:29:52.541Z,101650.28
2023-01-06T10:32:24.023Z,101657.69
2023-01-06T10:34:53.161Z,101653.38
2023-01-06T10:37:26.012Z,101633.59
2023-01-06T10:40:03.592Z,101655.69
2023-01-06T10:42:56.552Z,101653.09
2023-01-06T10:45:29.026Z,101659.22
2023-01-06T10:48:00.571Z,101654.50
2023-01-06T10:50:29.471Z,101644.41
2023-01-06T10:52:57.756Z,101657.78
2023-01-06T10:55:43.955Z,101654.31
2023-01-06T10:58:24.199Z,101549.44
2023-01-06T11:01:10.442Z,101637.97
2023-01-06T11:03:42.803Z,101643.19
2023-01-06T11:06:21.563Z,101642.78
2023-01-06T11:08:50.039Z,101637.41
2023-01-06T11:11:29.258Z,101642.72
2023-01-06T11:14:05.068Z,101637.19
2023-01-06T11:16:38.097Z,101633.06
2023-01-06T11:19:22.505Z,101644.31
2023-01-06T11:21:50.863Z,101638.53
2023-01-06T11:24:22.772Z,101634.66
2023-01-06T11:26:57.142Z,101647.69
2023-01-06T11:29:32.641Z,101634.47
2023-01-06T11:32:06.895Z,101632.47
2023-01-06T11:34:36.800Z,101629.88
2023-01-06T11:37:06.113Z,101617.41
2023-01-06T11:39:37.651Z,101612.31
2023-01-06T11:42:14.205Z,101609.06
2023-01-06T11:44:43.852Z,101606.31
2023-01-06T11:47:17.390Z,101585.38
2023-01-06T11:49:51.801Z,101584.66
2023-01-06T11:52:24.998Z,101589.31
2023-01-06T11:55:02.814Z,101560.94
2023-01-06T11:57:41.625Z,101580.56
2023-01-06T12:00:38.143Z,101589.44
2023-01-06T12:03:16.404Z,101590.25
2023-01-06T12:05:53.248Z,101586.47
2023-01-06T12:08:25.710Z,101596.78
2023-01-06T12:10:59.984Z,101607.25
2023-01-06T12:13:28.464Z,101589.38
2023-01-06T12:16:06.274Z,101602.63
2023-01-06T12:18:36.936Z,101603.38
2023-01-06T12:21:07.100Z,101608.63
2023-01-06T12:23:39.188Z,101604.25
2023-01-06T12:26:16.916Z,101599.03
2023-01-06T12:28:48.618Z,101599.03
2023-01-06T12:31:25.341Z,101593.75
2023-01-06T12:33:59.021Z,101579.63
2023-01-06T12:36:38.937Z,101593.53
2023-01-06T12:39:13.838Z,101565.06
2023-01-06T12:41:49.169Z,101586.06
2023-01-06T12:44:31.887Z,101586.81
2023-01-06T12:47:07.050Z,101595.84
2023-01-06T12:49:43.337Z,101558.19
2023-01-06T12:52:20.607Z,101554.75
2023-01-06T12:54:54.192Z,101603.34
2023-01-06T12:57:50.511Z,101601.38
2023-01-06T13:00:39.821Z,101596.88
2023-01-06T13:03:31.536Z,101586.53
2023-01-06T13:06:18.180Z,101473.31
2023-01-06T13:09:13.048Z,101595.13
2023-01-06T13:12:08.454Z,101592.75
2023-01-06T13:14:45.943Z,101572.44
2023-01-06T13:17:23.154Z,101596.59
2023-01-06T13:19:54.235Z,101588.59
2023-01-06T13:22:37.388Z,101589.63
2023-01-06T13:25:35.580Z,101597.84
2023-01-06T13:28:13.225Z,101609.84
2023-01-06T13:31:20.650Z,101597.56
2023-01-06T13:34:28.123Z,101594.16
2023-01-06T13:37:29.459Z,101579.09
2023-01-06T13:40:02.444Z,101570.97
2023-01-06T13:42:40.229Z,101580.00
2023-01-06T13:45:17.676Z,101592.56
2023-01-06T13:47:48.145Z,101557.25
2023-01-06T13:50:19.749Z,101461.06
2023-01-06T13:52:49.308Z,101575.69
2023-01-06T13:55:30.176Z,101572.03
2023-01-06T13:58:36.911Z,101557.00
2023-01-06T14:01:11.869Z,101561.31
2023-01-06T14:03:42.748Z,101573.78
2023-01-06T14:06:12.819Z,101579.91
2023-01-06T14:08:49.949Z,101561.19
2023-01-06T14:11:27.625Z,101582.25
2023-01-06T14:13:59.816Z,101438.50
2023-01-06T14:16:44.400Z,101563.78
2023-01-06T14:19:19.241Z,101568.06
2023-01-06T14:21:49.085Z,101567.31
2023-01-06T14:24:28.255Z,101571.84
2023-01-06T14:27:01.041Z,101563.88
2023-01-06T14:30:04.941Z,101549.88
2023-01-06T14:33:26.203Z,101554.47
2023-01-06T14:36:05.293Z,101556.34
2023-01-06T14:38:42.437Z,101555.53
2023-01-06T14:41:22.431Z,101539.56
2023-01-06T14:43:56.725Z,101534.38
2023-01-06T14:46:31.564Z,101552.88
2023-01-06T14:49:03.495Z,101496.31
2023-01-06T14:51:34.489Z,101553.00
2023-01-06T14:54:06.712Z,101554.81
2023-01-06T14:56:35.602Z,101550.38
2023-01-06T14:59:13.162Z,101557.44
2023-01-06T15:01:45.174Z,101564.59
2023-01-06T15:04:25.787Z,101561.06
2023-01-06T15:07:00.508Z,101535.41
2023-01-06T15:09:29.281Z,101552.19
2023-01-06T15:11:57.828Z,101542.47
2023-01-06T15:14:28.473Z,101548.78
2023-01-06T15:17:03.272Z,101546.13
2023-01-06T15:19:32.161Z,101522.31
2023-01-06T15:22:02.424Z,101546.16
2023-01-06T15:24:32.748Z,101547.94
2023-01-06T15:27:07.404Z,101546.16
2023-01-06T15:29:36.815Z,101551.50
2023-01-06T15:32:11.990Z,101555.91
2023-01-06T15:34:46.494Z,101543.56
2023-01-06T15:37:20.619Z,101551.53
2023-01-06T15:39:49.907Z,101535.59
2023-01-06T15:42:23.168Z,101532.94
2023-01-06T15:44:59.604Z,101522.31
2023-01-06T15:47:34.732Z,101526.72
2023-01-06T15:50:08.224Z,101524.94
2023-01-06T15:52:39.973Z,101522.31
2023-01-06T15:55:21.468Z,101525.84
2023-01-06T15:57:57.121Z,101464.06
2023-01-06T16:00:28.865Z,101495.78
2023-01-06T16:02:59.322Z,101385.50
2023-01-06T16:05:42.575Z,101519.63
2023-01-06T16:08:24.413Z,101521.44
2023-01-06T16:11:13.289Z,101517.00
2023-01-06T16:13:42.105Z,101525.00
2023-01-06T16:16:28.534Z,101531.22
2023-01-06T16:18:58.819Z,101526.84
2023-01-06T16:21:30.376Z,101517.94
2023-01-06T16:24:00.352Z,101412.91
2023-01-06T16:26:31.240Z,101518.03
2023-01-06T16:29:02.668Z,101502.09
2023-01-06T16:31:34.381Z,101510.03
2023-01-06T16:34:27.732Z,101506.50
2023-01-06T16:36:58.212Z,101500.34
2023-01-06T16:39:28.161Z,101510.94
2023-01-06T16:42:42.354Z,101497.63
2023-01-06T16:45:27.572Z,101500.22
2023-01-06T16:47:56.559Z,101506.41
2023-01-06T16:50:34.264Z,101506.41
2023-01-06T16:53:11.729Z,101504.59
2023-01-06T16:55:42.261Z,101507.25
2023-01-06T16:58:18.095Z,101513.38
2023-01-06T17:00:51.631Z,101515.19
2023-01-06T17:03:22.849Z,101480.69
2023-01-06T17:05:53.856Z,101478.94
2023-01-06T17:08:28.558Z,101512.47
2023-01-06T17:10:57.974Z,101510.69
2023-01-06T17:13:39.713Z,101506.25
2023-01-06T17:16:16.852Z,101483.34
2023-01-06T17:18:55.349Z,101523.16
2023-01-06T17:21:29.820Z,101514.25
2023-01-06T17:24:03.537Z,101507.22
2023-01-06T17:26:32.057Z,101512.53
2023-01-06T17:29:02.155Z,101520.47
2023-01-06T17:31:37.678Z,101500.97
2023-01-06T17:34:15.450Z,101391.56
2023-01-06T17:36:48.290Z,101490.41
2023-01-06T17:39:21.312Z,101488.72
2023-01-06T17:41:50.225Z,101499.31
2023-01-06T17:44:20.812Z,101494.00
2023-01-06T17:46:49.576Z,101490.50
2023-01-06T17:49:35.842Z,101491.38
2023-01-06T17:52:17.029Z,101485.16
2023-01-06T17:55:12.244Z,101486.94
2023-01-06T17:57:45.574Z,101477.19
2023-01-06T18:00:24.239Z,101472.84
2023-01-06T18:02:57.582Z,101480.72
2023-01-06T18:06:21.516Z,101485.09
2023-01-06T18:08:55.498Z,101493.97
2023-01-06T18:11:30.871Z,101493.88
2023-01-06T18:14:25.353Z,101499.22
2023-01-06T18:16:56.779Z,101497.38
2023-01-06T18:19:35.438Z,101495.63
2023-01-06T18:22:13.476Z,101487.63
2023-01-06T18:24:44.217Z,101468.22
2023-01-06T18:27:19.392Z,101477.91
2023-01-06T18:29:47.851Z,101492.97
2023-01-06T18:32:29.878Z,101486.78
2023-01-06T18:34:59.793Z,101489.41
2023-01-06T18:37:31.303Z,101445.31
2023-01-06T18:40:03.815Z,101489.38
2023-01-06T18:42:35.364Z,101477.91
2023-01-06T18:45:19.468Z,101474.38
2023-01-06T18:47:55.392Z,101489.44
2023-01-06T18:50:34.652Z,101477.13
2023-01-06T18:53:06.891Z,101465.59
2023-01-06T18:55:40.226Z,101466.59
2023-01-06T18:58:23.485Z,101478.06
2023-01-06T19:00:57.164Z,101397.78
2023-01-06T19:03:38.483Z,101468.41
2023-01-06T19:06:35.748Z,101452.50
2023-01-06T19:09:24.036Z,101446.28
2023-01-06T19:12:03.159Z,101441.91
2023-01-06T19:14:37.682Z,101456.00
2023-01-06T19:17:18.282Z,101452.53
2023-01-06T19:19:46.867Z,101460.44
2023-01-06T19:22:23.253Z,101449.84
2023-01-06T19:24:58.605Z,101448.94
2023-01-06T19:27:42.421Z,101411.88
2023-01-06T19:30:41.344Z,101437.41
2023-01-06T19:33:44.615Z,101446.25
2023-01-06T19:36:49.341Z,101441.81
2023-01-06T19:39:31.654Z,101432.97
2023-01-06T19:42:13.564Z,101430.38
2023-01-06T19:44:43.326Z,101420.56
2023-01-06T19:47:19.662Z,101265.38
2023-01-06T19:49:53.137Z,101405.56
2023-01-06T19:52:40.348Z,101414.41
2023-01-06T19:55:21.221Z,101380.03
2023-01-06T19:57:53.737Z,101434.84
2023-01-06T20:00:31.037Z,101387.13
2023-01-06T20:03:03.388Z,101431.22
2023-01-06T20:05:32.863Z,101423.31
2023-01-06T20:08:01.233Z,101419.72
2023-01-06T20:10:29.852Z,101425.91
2023-01-06T20:12:58.173Z,101412.69
2023-01-06T20:15:27.870Z,101425.09
2023-01-06T20:17:56.210Z,101387.97
2023-01-06T20:20:24.621Z,101416.19
2023-01-06T20:22:53.068Z,101417.09
2023-01-06T20:25:21.785Z,101415.34
2023-01-06T20:27:50.152Z,101404.75
2023-01-06T20:30:18.891Z,101408.34
2023-01-06T20:32:48.706Z,101422.44
2023-01-06T20:35:17.409Z,101421.53
2023-01-06T20:37:45.950Z,101426.00
2023-01-06T20:40:14.516Z,101416.25
2023-01-06T20:42:42.914Z,101418.00
2023-01-06T20:45:12.554Z,101420.63
2023-01-06T20:47:41.845Z,101414.47
2023-01-06T20:50:14.405Z,101410.94
2023-01-06T20:52:43.327Z,101373.84
2023-01-06T20:55:11.741Z,101418.84
2023-01-06T20:57:40.209Z,101399.44
2023-01-06T21:00:10.941Z,101422.41
2023-01-06T21:02:39.186Z,101410.94
2023-01-06T21:05:08.965Z,101376.50
2023-01-06T21:07:38.785Z,101411.81
2023-01-06T21:10:08.301Z,101413.63
2023-01-06T21:12:36.813Z,101413.63
2023-01-06T21:15:06.244Z,101410.06
2023-01-06T21:17:35.010Z,101295.41
2023-01-06T21:20:03.662Z,101389.75
2023-01-06T21:22:32.295Z,101429.50
2023-01-06T21:25:02.301Z,101430.44
2023-01-06T21:27:30.711Z,101410.03
2023-01-06T21:29:59.068Z,101419.81
2023-01-06T21:32:27.684Z,101416.28
2023-01-06T21:34:56.019Z,101423.38
2023-01-06T21:37:24.357Z,101408.31
2023-01-06T21:39:52.949Z,101387.13
2023-01-06T21:42:40.096Z,101417.16
2023-01-06T21:45:10.690Z,101394.22
2023-01-06T21:47:39.030Z,101414.47
2023-01-06T21:50:08.931Z,101331.53
2023-01-06T21:52:37.753Z,101383.50
2023-01-06T21:55:06.936Z,101412.66
2023-01-06T21:57:38.354Z,101393.22
2023-01-06T22:00:10.806Z,101399.41
2023-01-06T22:02:42.042Z,101381.78
2023-01-06T22:05:10.857Z,101396.75
2023-01-06T22:07:43.533Z,101409.16
2023-01-06T22:10:13.603Z,101392.34
2023-01-06T22:12:45.425Z,101389.72
2023-01-06T22:15:15.100Z,101406.50
2023-01-06T22:17:43.699Z,101405.63
2023-01-06T22:20:14.917Z,101395.81
2023-01-06T22:22:43.784Z,101388.81
2023-01-06T22:25:12.235Z,101411.81
2023-01-06T22:27:41.978Z,101374.66
2023-01-06T22:30:11.931Z,101402.06
2023-01-06T22:32:44.469Z,101382.56
2023-01-06T22:35:14.539Z,101387.84
2023-01-06T22:37:43.668Z,101341.94
2023-01-06T22:40:14.587Z,101378.19
2023-01-06T22:42:45.325Z,101401.19
2023-01-06T22:45:14.048Z,101408.34
2023-01-06T22:47:42.602Z,101387.09
2023-01-06T22:50:11.974Z,101403.03
2023-01-06T22:52:40.306Z,101337.69
2023-01-06T22:55:09.978Z,101411.00
2023-01-06T22:57:38.361Z,101396.81
2023-01-06T23:00:14.720Z,101399.50
2023-01-06T23:02:43.551Z,101407.50
2023-01-06T23:05:12.483Z,101407.44
2023-01-06T23:07:43.974Z,101409.25
2023-01-06T23:10:14.379Z,101406.53
2023-01-06T23:12:44.233Z,101394.16
2023-01-06T23:15:14.130Z,101401.22
2023-01-06T23:17:42.540Z,101367.69
2023-01-06T23:20:12.421Z,101388.88
2023-01-06T23:22:41.003Z,101387.97
2023-01-06T23:25:09.958Z,101387.97
2023-01-06T23:27:38.831Z,101344.81
2023-01-06T23:30:09.192Z,101367.72
2023-01-06T23:32:39.050Z,101376.50
2023-01-06T23:35:07.997Z,101378.25
2023-01-06T23:37:36.387Z,101384.47
2023-01-06T23:40:04.999Z,101378.28
2023-01-06T23:42:37.417Z,101372.97
2023-01-06T23:45:12.772Z,101375.66
2023-01-06T23:47:42.481Z,101356.16
2023-01-06T23:50:11.164Z,101366.81
2023-01-06T23:52:39.485Z,101353.47
2023-01-06T23:55:08.913Z,101354.38
2023-01-06T23:57:37.282Z,101309.41
